sensor_id;sensor_type;location;lat;lon;timestamp;pressure;altitude;pressure_sealevel;temperature;humidity
59987;BME280;46181;51.498;5.392;2023-07-09T00:03:18;101559.1;;;29.5;43.25
59987;BME280;46181;51.498;5.392;2023-07-09T00:07:46;101563.4;;;29.46;43.77734
59987;BME280;46181;51.498;5.392;2023-07-09T00:12:19;101564.3;;;29.37;43.94531
59987;BME280;46181;51.498;5.392;2023-07-09T00:16:47;101565.6;;;29.33;44.0957
59987;BME280;46181;51.498;5.392;2023-07-09T00:21:17;101571.8;;;29.28;44.19629
59987;BME280;46181;51.498;5.392;2023-07-09T00:25:47;101576.3;;;29.22;44.42578
59987;BME280;46181;51.498;5.392;2023-07-09T00:30:22;101576;;;29.12;44.65234
59987;BME280;46181;51.498;5.392;2023-07-09T00:34:47;101578.6;;;29.11;44.78027
59987;BME280;46181;51.498;5.392;2023-07-09T00:39:23;101583.8;;;29.02;44.96094
59987;BME280;46181;51.498;5.392;2023-07-09T00:43:47;101586;;;29.02;44.92578
59987;BME280;46181;51.498;5.392;2023-07-09T00:48:21;101584.6;;;28.92;45.1748
59987;BME280;46181;51.498;5.392;2023-07-09T00:52:51;101584;;;28.89;45.2666
59987;BME280;46181;51.498;5.392;2023-07-09T00:57:21;101590.6;;;28.87;45.42871
59987;BME280;46181;51.498;5.392;2023-07-09T01:01:47;101592.8;;;28.82;45.49512
59987;BME280;46181;51.498;5.392;2023-07-09T01:06:18;101586.3;;;28.75;45.99316
59987;BME280;46181;51.498;5.392;2023-07-09T01:10:47;101581.4;;;28.7;46.25977
59987;BME280;46181;51.498;5.392;2023-07-09T01:15:18;101580;;;28.66;46.33789
59987;BME280;46181;51.498;5.392;2023-07-09T01:19:52;101576.8;;;28.59;46.63672
59987;BME280;46181;51.498;5.392;2023-07-09T01:28:47;101581.2;;;28.52;46.8877
59987;BME280;46181;51.498;5.392;2023-07-09T01:33:17;101578.3;;;28.47;47.17676
59987;BME280;46181;51.498;5.392;2023-07-09T01:37:47;101579.1;;;28.44;47.30273
59987;BME280;46181;51.498;5.392;2023-07-09T01:42:17;101587.8;;;28.39;47.55566
59987;BME280;46181;51.498;5.392;2023-07-09T01:46:47;101590;;;28.37;47.68359
59987;BME280;46181;51.498;5.392;2023-07-09T01:51:17;101595.5;;;28.32;47.7373
59987;BME280;46181;51.498;5.392;2023-07-09T01:55:47;101602.8;;;28.32;47.77148
59987;BME280;46181;51.498;5.392;2023-07-09T02:00:18;101607.3;;;28.29;47.88672
59987;BME280;46181;51.498;5.392;2023-07-09T02:04:47;101609.5;;;28.31;47.99512
59987;BME280;46181;51.498;5.392;2023-07-09T02:09:17;101607;;;28.3;48.11133
59987;BME280;46181;51.498;5.392;2023-07-09T02:13:47;101606;;;28.28;48.12109
59987;BME280;46181;51.498;5.392;2023-07-09T02:18:17;101618.8;;;28.27;48.2373
59987;BME280;46181;51.498;5.392;2023-07-09T02:22:49;101608.7;;;28.23;48.2793
59987;BME280;46181;51.498;5.392;2023-07-09T02:27:19;101613;;;28.17;48.37988
59987;BME280;46181;51.498;5.392;2023-07-09T02:31:47;101604.5;;;28.15;48.37793
59987;BME280;46181;51.498;5.392;2023-07-09T02:36:17;101604.8;;;28.11;48.4668
59987;BME280;46181;51.498;5.392;2023-07-09T02:40:47;101604.5;;;28.07;48.56836
59987;BME280;46181;51.498;5.392;2023-07-09T02:45:18;101608.4;;;28;48.76074
59987;BME280;46181;51.498;5.392;2023-07-09T02:49:47;101605.2;;;27.96;48.85059
59987;BME280;46181;51.498;5.392;2023-07-09T02:54:17;101615;;;27.93;48.90527
59987;BME280;46181;51.498;5.392;2023-07-09T02:58:47;101614.7;;;27.85;49.10742
59987;BME280;46181;51.498;5.392;2023-07-09T03:03:17;101603.4;;;27.79;49.25488
59987;BME280;46181;51.498;5.392;2023-07-09T03:07:47;101603;;;27.76;49.41504
59987;BME280;46181;51.498;5.392;2023-07-09T03:12:17;101604.4;;;27.73;49.45801
59987;BME280;46181;51.498;5.392;2023-07-09T03:16:47;101606.5;;;27.7;49.57227
59987;BME280;46181;51.498;5.392;2023-07-09T03:21:17;101604.3;;;27.67;49.65137
59987;BME280;46181;51.498;5.392;2023-07-09T03:25:49;101611.3;;;27.61;49.85742
59987;BME280;46181;51.498;5.392;2023-07-09T03:30:18;101606.3;;;27.58;50.06348
59987;BME280;46181;51.498;5.392;2023-07-09T03:34:47;101607;;;27.56;50.15527
59987;BME280;46181;51.498;5.392;2023-07-09T03:39:17;101606.7;;;27.55;50.16602
59987;BME280;46181;51.498;5.392;2023-07-09T03:43:47;101603.1;;;27.55;50.25977
59987;BME280;46181;51.498;5.392;2023-07-09T03:48:17;101605.2;;;27.55;50.2832
59987;BME280;46181;51.498;5.392;2023-07-09T03:52:47;101611.1;;;27.53;50.23438
59987;BME280;46181;51.498;5.392;2023-07-09T03:57:17;101607.9;;;27.52;50.33887
59987;BME280;46181;51.498;5.392;2023-07-09T04:01:47;101610.9;;;27.52;50.52637
59987;BME280;46181;51.498;5.392;2023-07-09T04:06:17;101610.9;;;27.54;50.6582
59987;BME280;46181;51.498;5.392;2023-07-09T04:10:47;101602.8;;;27.56;50.74219
59987;BME280;46181;51.498;5.392;2023-07-09T04:15:18;101609.3;;;27.59;50.80469
59987;BME280;46181;51.498;5.392;2023-07-09T04:19:47;101609.8;;;27.7;50.80371
59987;BME280;46181;51.498;5.392;2023-07-09T04:24:18;101605.9;;;27.76;50.8125
59987;BME280;46181;51.498;5.392;2023-07-09T04:28:47;101609.3;;;27.81;50.86426
59987;BME280;46181;51.498;5.392;2023-07-09T04:33:17;101608.3;;;27.89;50.9082
59987;BME280;46181;51.498;5.392;2023-07-09T04:37:47;101600.3;;;27.97;50.8584
59987;BME280;46181;51.498;5.392;2023-07-09T04:42:19;101605.5;;;28.03;50.94727
59987;BME280;46181;51.498;5.392;2023-07-09T04:46:47;101606.2;;;28.15;50.50293
59987;BME280;46181;51.498;5.392;2023-07-09T04:51:17;101599.1;;;28.28;50.48242
59987;BME280;46181;51.498;5.392;2023-07-09T04:55:47;101600.8;;;28.44;50.25293
59987;BME280;46181;51.498;5.392;2023-07-09T05:00:19;101600.5;;;28.59;50.05859
59987;BME280;46181;51.498;5.392;2023-07-09T05:04:47;101601.4;;;28.79;49.54004
59987;BME280;46181;51.498;5.392;2023-07-09T05:09:17;101601.8;;;28.99;48.93652
59987;BME280;46181;51.498;5.392;2023-07-09T05:13:47;101603.8;;;29.19;48.58203
59987;BME280;46181;51.498;5.392;2023-07-09T05:18:17;101600.4;;;29.41;48.00586
59987;BME280;46181;51.498;5.392;2023-07-09T05:22:47;101602.3;;;29.63;47.52148
59987;BME280;46181;51.498;5.392;2023-07-09T05:27:17;101606.2;;;29.86;47.09766
59987;BME280;46181;51.498;5.392;2023-07-09T05:31:47;101604;;;30.12;47.125
59987;BME280;46181;51.498;5.392;2023-07-09T05:36:17;101598.8;;;30.37;46.66504
59987;BME280;46181;51.498;5.392;2023-07-09T05:40:47;101597.2;;;30.59;45.84961
59987;BME280;46181;51.498;5.392;2023-07-09T05:45:18;101600.6;;;30.82;45.51758
59987;BME280;46181;51.498;5.392;2023-07-09T05:49:47;101599.7;;;31.03;44.56836
59987;BME280;46181;51.498;5.392;2023-07-09T05:54:17;101606.1;;;31.24;44.42285
59987;BME280;46181;51.498;5.392;2023-07-09T05:58:47;101615.3;;;31.46;43.78027
59987;BME280;46181;51.498;5.392;2023-07-09T06:03:17;101616.3;;;31.62;43.19141
59987;BME280;46181;51.498;5.392;2023-07-09T06:07:47;101615.4;;;31.8;42.50879
59987;BME280;46181;51.498;5.392;2023-07-09T06:12:17;101615.3;;;31.94;42.2959
59987;BME280;46181;51.498;5.392;2023-07-09T06:16:47;101622.7;;;32.12;41.90918
59987;BME280;46181;51.498;5.392;2023-07-09T06:21:17;101625.6;;;32.33;41.61914
59987;BME280;46181;51.498;5.392;2023-07-09T06:25:47;101617.6;;;32.53;40.91211
59987;BME280;46181;51.498;5.392;2023-07-09T06:30:17;101622.2;;;32.75;40.02734
59987;BME280;46181;51.498;5.392;2023-07-09T06:34:47;101618.3;;;32.95;39.53418
59987;BME280;46181;51.498;5.392;2023-07-09T06:39:17;101611.6;;;33.14;39.12109
59987;BME280;46181;51.498;5.392;2023-07-09T06:43:47;101617.5;;;33.33;38.75586
59987;BME280;46181;51.498;5.392;2023-07-09T06:48:17;101614.8;;;33.51;38.27051
59987;BME280;46181;51.498;5.392;2023-07-09T06:52:47;101609.5;;;33.71;37.69141
59987;BME280;46181;51.498;5.392;2023-07-09T06:57:17;101618.9;;;33.92;37.50586
59987;BME280;46181;51.498;5.392;2023-07-09T07:01:47;101622.8;;;34.13;37.18848
59987;BME280;46181;51.498;5.392;2023-07-09T07:06:17;101623;;;34.33;37.12012
59987;BME280;46181;51.498;5.392;2023-07-09T07:10:47;101629.5;;;34.53;36.74219
59987;BME280;46181;51.498;5.392;2023-07-09T07:15:18;101632.8;;;34.73;35.83789
59987;BME280;46181;51.498;5.392;2023-07-09T07:19:47;101636;;;34.94;35.15918
59987;BME280;46181;51.498;5.392;2023-07-09T07:24:17;101637.6;;;35.15;35.10254
59987;BME280;46181;51.498;5.392;2023-07-09T07:28:47;101640.8;;;35.34;34.51855
59987;BME280;46181;51.498;5.392;2023-07-09T07:33:17;101642.1;;;35.55;34.23438
59987;BME280;46181;51.498;5.392;2023-07-09T07:37:47;101637.2;;;35.64;33.36621
59987;BME280;46181;51.498;5.392;2023-07-09T07:42:18;101631.4;;;35.78;32.89648
59987;BME280;46181;51.498;5.392;2023-07-09T07:46:47;101627;;;35.94;32.82422
59987;BME280;46181;51.498;5.392;2023-07-09T07:51:17;101632.6;;;36.1;32.30664
59987;BME280;46181;51.498;5.392;2023-07-09T07:55:47;101633.4;;;36.24;31.96777
59987;BME280;46181;51.498;5.392;2023-07-09T08:00:19;101631.9;;;36.37;31.95215
59987;BME280;46181;51.498;5.392;2023-07-09T08:04:47;101631.9;;;36.56;31.58105
59987;BME280;46181;51.498;5.392;2023-07-09T08:09:17;101629.3;;;36.65;31.16699
59987;BME280;46181;51.498;5.392;2023-07-09T08:13:47;101630.6;;;36.77;31.18555
59987;BME280;46181;51.498;5.392;2023-07-09T08:18:17;101628.3;;;36.99;30.78027
59987;BME280;46181;51.498;5.392;2023-07-09T08:22:47;101621.9;;;37.17;30.73145
59987;BME280;46181;51.498;5.392;2023-07-09T08:27:18;101624.7;;;37.32;30.71777
59987;BME280;46181;51.498;5.392;2023-07-09T08:31:47;101620.5;;;37.41;30.27734
59987;BME280;46181;51.498;5.392;2023-07-09T08:36:17;101617.9;;;37.48;29.89648
59987;BME280;46181;51.498;5.392;2023-07-09T08:40:54;101617.1;;;37.57;30.04688
59987;BME280;46181;51.498;5.392;2023-07-09T08:45:28;101621.9;;;37.69;29.8623
59987;BME280;46181;51.498;5.392;2023-07-09T08:49:53;101619.7;;;37.78;29.94043
59987;BME280;46181;51.498;5.392;2023-07-09T08:54:22;101620.7;;;38;29.10938
59987;BME280;46181;51.498;5.392;2023-07-09T08:58:47;101621.1;;;38.04;29.41406
59987;BME280;46181;51.498;5.392;2023-07-09T09:03:21;101615.5;;;38.12;29.68457
59987;BME280;46181;51.498;5.392;2023-07-09T09:07:51;101612;;;38.27;28.87207
59987;BME280;46181;51.498;5.392;2023-07-09T09:12:23;101604.3;;;38.43;29.05176
59987;BME280;46181;51.498;5.392;2023-07-09T09:16:48;101602.2;;;38.63;28.48438
59987;BME280;46181;51.498;5.392;2023-07-09T09:21:26;101601.8;;;38.71;28.76758
59987;BME280;46181;51.498;5.392;2023-07-09T09:25:50;101601.2;;;38.83;28.62988
59987;BME280;46181;51.498;5.392;2023-07-09T09:30:21;101595.3;;;38.96;28.04492
59987;BME280;46181;51.498;5.392;2023-07-09T09:34:47;101585.9;;;38.98;28.34863
59987;BME280;46181;51.498;5.392;2023-07-09T09:39:19;101576.1;;;39.18;27.93652
59987;BME280;46181;51.498;5.392;2023-07-09T09:43:51;101570.3;;;39.35;27.95898
59987;BME280;46181;51.498;5.392;2023-07-09T09:48:27;101574.8;;;39.58;27.47656
59987;BME280;46181;51.498;5.392;2023-07-09T09:52:48;101567.9;;;39.52;27.06055
59987;BME280;46181;51.498;5.392;2023-07-09T09:57:23;101553.9;;;39.35;26.92969
59987;BME280;46181;51.498;5.392;2023-07-09T10:01:47;101551.4;;;39.23;27.97656
59987;BME280;46181;51.498;5.392;2023-07-09T10:06:25;101562.5;;;39.07;27.53027
59987;BME280;46181;51.498;5.392;2023-07-09T10:10:48;101562.7;;;38.99;27.35645
59987;BME280;46181;51.498;5.392;2023-07-09T10:15:29;101560.4;;;39.09;27.53125
59987;BME280;46181;51.498;5.392;2023-07-09T10:19:53;101574.9;;;39.22;27.58789
59987;BME280;46181;51.498;5.392;2023-07-09T10:24:29;101580.5;;;39.41;27.63477
59987;BME280;46181;51.498;5.392;2023-07-09T10:29:04;101579.2;;;39.76;26.94141
59987;BME280;46181;51.498;5.392;2023-07-09T10:33:22;101593.9;;;40.16;25.96973
59987;BME280;46181;51.498;5.392;2023-07-09T10:38:05;101587.6;;;40.49;25.24609
59987;BME280;46181;51.498;5.392;2023-07-09T10:42:23;101590.1;;;40.67;24.96484
59987;BME280;46181;51.498;5.392;2023-07-09T10:46:50;101588.8;;;40.97;24.61523
59987;BME280;46181;51.498;5.392;2023-07-09T10:51:24;101582;;;41.11;24.97559
59987;BME280;46181;51.498;5.392;2023-07-09T10:55:52;101572.6;;;41.19;25.12598
59987;BME280;46181;51.498;5.392;2023-07-09T11:00:21;101567.5;;;41.31;25.1084
59987;BME280;46181;51.498;5.392;2023-07-09T11:04:53;101565.3;;;41.4;24.91797
59987;BME280;46181;51.498;5.392;2023-07-09T11:09:23;101563.6;;;41.73;24.60742
59987;BME280;46181;51.498;5.392;2023-07-09T11:13:50;101573.7;;;41.98;23.97461
59987;BME280;46181;51.498;5.392;2023-07-09T11:18:30;101582.2;;;42.05;23.70898
59987;BME280;46181;51.498;5.392;2023-07-09T11:22:59;101590.8;;;42.22;23.90039
59987;BME280;46181;51.498;5.392;2023-07-09T11:27:29;101591.6;;;42.31;23.37988
59987;BME280;46181;51.498;5.392;2023-07-09T11:31:48;101578.1;;;42.55;23.18457
59987;BME280;46181;51.498;5.392;2023-07-09T11:36:27;101579.8;;;42.73;23.07227
59987;BME280;46181;51.498;5.392;2023-07-09T11:40:54;101580.4;;;42.69;23.13086
59987;BME280;46181;51.498;5.392;2023-07-09T11:45:20;101593.5;;;42.81;23.50293
59987;BME280;46181;51.498;5.392;2023-07-09T11:49:55;101593.2;;;42.77;23.76953
59987;BME280;46181;51.498;5.392;2023-07-09T11:54:19;101606.6;;;42.67;23.98535
59987;BME280;46181;51.498;5.392;2023-07-09T11:58:57;101622.8;;;42.28;23.5625
59987;BME280;46181;51.498;5.392;2023-07-09T12:03:22;101626.1;;;41.91;24.16602
59987;BME280;46181;51.498;5.392;2023-07-09T12:07:47;101613.9;;;41.69;25.01953
59987;BME280;46181;51.498;5.392;2023-07-09T12:12:26;101597.2;;;41.55;25.30371
59987;BME280;46181;51.498;5.392;2023-07-09T12:16:49;101612;;;41.54;25.68164
59987;BME280;46181;51.498;5.392;2023-07-09T12:21:18;101614.1;;;41.5;25.92188
59987;BME280;46181;51.498;5.392;2023-07-09T12:25:50;101611.9;;;41.27;25.95801
59987;BME280;46181;51.498;5.392;2023-07-09T12:30:22;101595.1;;;41.01;26.84375
59987;BME280;46181;51.498;5.392;2023-07-09T12:34:50;101587.8;;;40.91;27.04395
59987;BME280;46181;51.498;5.392;2023-07-09T12:39:21;101600.4;;;40.6;27.48828
59987;BME280;46181;51.498;5.392;2023-07-09T12:43:47;101603.4;;;40.33;27.9209
59987;BME280;46181;51.498;5.392;2023-07-09T12:48:20;101593.9;;;40.02;28.56934
59987;BME280;46181;51.498;5.392;2023-07-09T12:52:54;101585.9;;;39.76;29.47461
59987;BME280;46181;51.498;5.392;2023-07-09T12:57:22;101592.2;;;39.4;29.74219
59987;BME280;46181;51.498;5.392;2023-07-09T13:01:50;101586.4;;;39.02;30.16602
59987;BME280;46181;51.498;5.392;2023-07-09T13:06:30;101591.1;;;38.59;30.43945
59987;BME280;46181;51.498;5.392;2023-07-09T13:10:49;101605.3;;;38.39;30.86133
59987;BME280;46181;51.498;5.392;2023-07-09T13:15:38;101600.2;;;37.93;31.77148
59987;BME280;46181;51.498;5.392;2023-07-09T13:19:47;101590.6;;;37.68;32.75488
59987;BME280;46181;51.498;5.392;2023-07-09T13:24:22;101584.9;;;37.43;33.23047
59987;BME280;46181;51.498;5.392;2023-07-09T13:28:47;101584;;;37.17;33.4043
59987;BME280;46181;51.498;5.392;2023-07-09T13:33:20;101585.7;;;36.82;33.34375
59987;BME280;46181;51.498;5.392;2023-07-09T13:37:47;101601.1;;;36.52;33.46582
59987;BME280;46181;51.498;5.392;2023-07-09T13:42:18;101632.1;;;36.24;34.11816
59987;BME280;46181;51.498;5.392;2023-07-09T13:46:47;101680.9;;;35.69;36.61914
59987;BME280;46181;51.498;5.392;2023-07-09T13:51:22;101726.4;;;34.71;39.64941
59987;BME280;46181;51.498;5.392;2023-07-09T13:55:47;101739.8;;;33.72;42.20996
59987;BME280;46181;51.498;5.392;2023-07-09T14:00:19;101738;;;33;43.41797
59987;BME280;46181;51.498;5.392;2023-07-09T14:04:47;101731.3;;;32.51;44.41504
59987;BME280;46181;51.498;5.392;2023-07-09T14:09:17;101756.6;;;31.79;46.69238
59987;BME280;46181;51.498;5.392;2023-07-09T14:13:47;101773.6;;;30.97;49.50586
59987;BME280;46181;51.498;5.392;2023-07-09T14:18:19;101779.8;;;30.95;50.12988
59987;BME280;46181;51.498;5.392;2023-07-09T14:22:48;101769.1;;;31.54;50.39648
59987;BME280;46181;51.498;5.392;2023-07-09T14:27:18;101737.2;;;32.08;50.50195
59987;BME280;46181;51.498;5.392;2023-07-09T14:31:47;101725.8;;;32.65;49.27344
59987;BME280;46181;51.498;5.392;2023-07-09T14:36:17;101712.8;;;33.01;46.5791
59987;BME280;46181;51.498;5.392;2023-07-09T14:40:49;101729;;;32.98;45.41211
59987;BME280;46181;51.498;5.392;2023-07-09T14:45:25;101728.6;;;32.97;45.83789
59987;BME280;46181;51.498;5.392;2023-07-09T14:49:47;101733.5;;;32.99;45.29297
59987;BME280;46181;51.498;5.392;2023-07-09T14:54:23;101706.2;;;32.83;45.09961
59987;BME280;46181;51.498;5.392;2023-07-09T14:58:47;101701.7;;;32.83;45.38477
59987;BME280;46181;51.498;5.392;2023-07-09T15:03:19;101698.2;;;32.75;44.42773
59987;BME280;46181;51.498;5.392;2023-07-09T15:07:47;101692.3;;;32.83;45.05273
59987;BME280;46181;51.498;5.392;2023-07-09T15:12:24;101690.6;;;32.99;43.59375
59987;BME280;46181;51.498;5.392;2023-07-09T15:16:47;101695.3;;;33.15;43.45508
59987;BME280;46181;51.498;5.392;2023-07-09T15:21:18;101695.6;;;33.26;42.81055
59987;BME280;46181;51.498;5.392;2023-07-09T15:25:47;101697.2;;;33.2;42.29297
59987;BME280;46181;51.498;5.392;2023-07-09T15:30:23;101699.1;;;32.9;42.59863
59987;BME280;46181;51.498;5.392;2023-07-09T15:34:47;101694.4;;;33.06;42.66113
59987;BME280;46181;51.498;5.392;2023-07-09T15:39:18;101694.6;;;33.12;41.29883
59987;BME280;46181;51.498;5.392;2023-07-09T15:43:47;101699.4;;;33;41.89453
59987;BME280;46181;51.498;5.392;2023-07-09T15:48:25;101704.9;;;33.35;41.5332
59987;BME280;46181;51.498;5.392;2023-07-09T15:52:47;101703.7;;;33.68;41.12305
59987;BME280;46181;51.498;5.392;2023-07-09T15:57:20;101699.6;;;35.04;39.37891
59987;BME280;46181;51.498;5.392;2023-07-09T16:01:47;101704.4;;;36.41;36.16016
59987;BME280;46181;51.498;5.392;2023-07-09T16:06:18;101693.9;;;36.75;34.34863
59987;BME280;46181;51.498;5.392;2023-07-09T16:10:47;101688.3;;;36.29;35.53906
59987;BME280;46181;51.498;5.392;2023-07-09T16:15:20;101680.2;;;36.68;34.9082
59987;BME280;46181;51.498;5.392;2023-07-09T16:19:47;101674.5;;;35.88;35.05176
59987;BME280;46181;51.498;5.392;2023-07-09T16:24:25;101666.4;;;35.11;36.59668
59987;BME280;46181;51.498;5.392;2023-07-09T16:28:47;101669.2;;;34.97;37.2207
59987;BME280;46181;51.498;5.392;2023-07-09T16:33:17;101668.4;;;35.16;37.00781
59987;BME280;46181;51.498;5.392;2023-07-09T16:37:48;101667.9;;;36.87;35.13867
59987;BME280;46181;51.498;5.392;2023-07-09T16:42:19;101665.9;;;38.24;32.64941
59987;BME280;46181;51.498;5.392;2023-07-09T16:46:47;101679.5;;;37.96;32.41309
59987;BME280;46181;51.498;5.392;2023-07-09T16:51:17;101685.6;;;36.94;33.50879
59987;BME280;46181;51.498;5.392;2023-07-09T16:55:47;101697.5;;;36.06;35.0293
59987;BME280;46181;51.498;5.392;2023-07-09T17:00:34;101702.8;;;35.38;36.41504
59987;BME280;46181;51.498;5.392;2023-07-09T17:04:47;101704.7;;;35.07;37.06055
59987;BME280;46181;51.498;5.392;2023-07-09T17:09:18;101706.7;;;34.83;37.73535
59987;BME280;46181;51.498;5.392;2023-07-09T17:13:48;101714.3;;;34.52;38.1875
59987;BME280;46181;51.498;5.392;2023-07-09T17:18:23;101715.4;;;34.3;39.08984
59987;BME280;46181;51.498;5.392;2023-07-09T17:22:48;101715.1;;;34.28;39.33887
59987;BME280;46181;51.498;5.392;2023-07-09T17:27:18;101717.6;;;34.25;39.66992
59987;BME280;46181;51.498;5.392;2023-07-09T17:31:48;101721;;;34.23;39.78809
59987;BME280;46181;51.498;5.392;2023-07-09T17:36:18;101728.8;;;34.2;39.5459
59987;BME280;46181;51.498;5.392;2023-07-09T17:40:47;101724;;;34.12;38.90625
59987;BME280;46181;51.498;5.392;2023-07-09T17:45:20;101728.3;;;34;38.5625
59987;BME280;46181;51.498;5.392;2023-07-09T17:49:47;101734.8;;;33.94;38.30664
59987;BME280;46181;51.498;5.392;2023-07-09T17:54:23;101743;;;33.82;38.4873
59987;BME280;46181;51.498;5.392;2023-07-09T17:58:48;101752.9;;;33.67;39.01172
59987;BME280;46181;51.498;5.392;2023-07-09T18:03:20;101750.5;;;33.38;39.03516
59987;BME280;46181;51.498;5.392;2023-07-09T18:07:47;101757.2;;;33.13;39.44238
59987;BME280;46181;51.498;5.392;2023-07-09T18:12:21;101774.9;;;32.89;39.88574
59987;BME280;46181;51.498;5.392;2023-07-09T18:16:47;101775.3;;;32.71;40.13184
59987;BME280;46181;51.498;5.392;2023-07-09T18:21:20;101770.1;;;32.39;40.8291
59987;BME280;46181;51.498;5.392;2023-07-09T18:25:49;101770.8;;;32.14;41.30469
59987;BME280;46181;51.498;5.392;2023-07-09T18:30:23;101776.6;;;31.87;41.64844
59987;BME280;46181;51.498;5.392;2023-07-09T18:34:47;101787.7;;;31.68;41.73828
59987;BME280;46181;51.498;5.392;2023-07-09T18:39:17;101785.2;;;31.46;42.0625
59987;BME280;46181;51.498;5.392;2023-07-09T18:43:47;101793.2;;;31.21;42.40625
59987;BME280;46181;51.498;5.392;2023-07-09T18:48:22;101797.4;;;30.99;42.7998
59987;BME280;46181;51.498;5.392;2023-07-09T18:52:47;101799.5;;;30.77;43.37109
59987;BME280;46181;51.498;5.392;2023-07-09T18:57:21;101790.5;;;30.53;43.7041
59987;BME280;46181;51.498;5.392;2023-07-09T19:01:48;101788.8;;;30.45;43.93164
59987;BME280;46181;51.498;5.392;2023-07-09T19:06:19;101779.3;;;30.34;44.00391
59987;BME280;46181;51.498;5.392;2023-07-09T19:10:47;101778.3;;;30.25;44.16113
59987;BME280;46181;51.498;5.392;2023-07-09T19:15:18;101783.1;;;30.2;44.35645
59987;BME280;46181;51.498;5.392;2023-07-09T19:19:48;101777.2;;;30.14;44.46973
59987;BME280;46181;51.498;5.392;2023-07-09T19:24:23;101778.2;;;30.07;44.69824
59987;BME280;46181;51.498;5.392;2023-07-09T19:28:47;101777;;;30;44.79883
59987;BME280;46181;51.498;5.392;2023-07-09T19:33:21;101771.1;;;29.86;45.31445
59987;BME280;46181;51.498;5.392;2023-07-09T19:37:48;101769.6;;;29.79;45.29688
59987;BME280;46181;51.498;5.392;2023-07-09T19:42:22;101783.9;;;29.69;45.59375
59987;BME280;46181;51.498;5.392;2023-07-09T19:46:47;101787.5;;;29.6;45.82031
59987;BME280;46181;51.498;5.392;2023-07-09T19:51:17;101794;;;29.47;46.18457
59987;BME280;46181;51.498;5.392;2023-07-09T19:55:47;101799.6;;;29.31;46.52246
59987;BME280;46181;51.498;5.392;2023-07-09T20:00:19;101804.9;;;29.13;47.00977
59987;BME280;46181;51.498;5.392;2023-07-09T20:04:47;101811.7;;;29.05;47.26074
59987;BME280;46181;51.498;5.392;2023-07-09T20:09:24;101818.7;;;28.94;47.5791
59987;BME280;46181;51.498;5.392;2023-07-09T20:13:48;101815;;;28.9;47.68066
59987;BME280;46181;51.498;5.392;2023-07-09T20:18:21;101823.6;;;28.83;47.88477
59987;BME280;46181;51.498;5.392;2023-07-09T20:22:48;101827;;;28.81;48.03613
59987;BME280;46181;51.498;5.392;2023-07-09T20:27:22;101835.2;;;28.67;48.30371
59987;BME280;46181;51.498;5.392;2023-07-09T20:31:49;101841.7;;;28.63;48.44141
59987;BME280;46181;51.498;5.392;2023-07-09T20:36:17;101843.5;;;28.64;48.41895
59987;BME280;46181;51.498;5.392;2023-07-09T20:40:47;101842.5;;;28.59;48.4248
59987;BME280;46181;51.498;5.392;2023-07-09T20:45:23;101852.2;;;28.48;48.60059
59987;BME280;46181;51.498;5.392;2023-07-09T20:49:48;101853.4;;;28.39;48.51953
59987;BME280;46181;51.498;5.392;2023-07-09T20:54:17;101857.1;;;28.38;48.55469
59987;BME280;46181;51.498;5.392;2023-07-09T20:58:47;101857.3;;;28.35;48.23438
59987;BME280;46181;51.498;5.392;2023-07-09T21:03:18;101861.7;;;28.28;48.0498
59987;BME280;46181;51.498;5.392;2023-07-09T21:07:52;101867;;;28.2;47.87695
59987;BME280;46181;51.498;5.392;2023-07-09T21:12:22;101849;;;28.12;47.82129
59987;BME280;46181;51.498;5.392;2023-07-09T21:16:48;101842.7;;;28.07;47.73438
59987;BME280;46181;51.498;5.392;2023-07-09T21:21:18;101837;;;28.01;47.88086
59987;BME280;46181;51.498;5.392;2023-07-09T21:25:47;101835.3;;;27.94;47.99121
59987;BME280;46181;51.498;5.392;2023-07-09T21:30:20;101837.9;;;27.89;48.00977
59987;BME280;46181;51.498;5.392;2023-07-09T21:34:48;101824.9;;;27.83;48.19043
59987;BME280;46181;51.498;5.392;2023-07-09T21:39:21;101827;;;27.66;48.38379
59987;BME280;46181;51.498;5.392;2023-07-09T21:43:47;101826.4;;;27.63;48.44043
59987;BME280;46181;51.498;5.392;2023-07-09T21:48:20;101836.5;;;27.55;48.47754
59987;BME280;46181;51.498;5.392;2023-07-09T21:52:48;101851.3;;;27.54;48.48828
59987;BME280;46181;51.498;5.392;2023-07-09T21:57:18;101849.2;;;27.53;48.37012
59987;BME280;46181;51.498;5.392;2023-07-09T22:01:48;101852.7;;;27.49;48.33008
59987;BME280;46181;51.498;5.392;2023-07-09T22:06:18;101855.7;;;27.38;48.22559
59987;BME280;46181;51.498;5.392;2023-07-09T22:10:47;101857.7;;;27.34;48.19629
59987;BME280;46181;51.498;5.392;2023-07-09T22:15:26;101863.7;;;27.21;48.03027
59987;BME280;46181;51.498;5.392;2023-07-09T22:19:48;101870.2;;;27.19;47.80566
59987;BME280;46181;51.498;5.392;2023-07-09T22:24:20;101870.3;;;27.06;47.67383
59987;BME280;46181;51.498;5.392;2023-07-09T22:28:48;101874.4;;;26.95;47.6875
59987;BME280;46181;51.498;5.392;2023-07-09T22:33:18;101868;;;26.81;47.80078
59987;BME280;46181;51.498;5.392;2023-07-09T22:37:48;101872.7;;;26.73;47.80371
59987;BME280;46181;51.498;5.392;2023-07-09T22:42:18;101871.7;;;26.63;47.93359
59987;BME280;46181;51.498;5.392;2023-07-09T22:46:48;101874.8;;;26.55;47.96191
59987;BME280;46181;51.498;5.392;2023-07-09T22:51:18;101883.3;;;26.51;48.03906
59987;BME280;46181;51.498;5.392;2023-07-09T22:55:49;101882.6;;;26.48;47.95313
59987;BME280;46181;51.498;5.392;2023-07-09T23:00:20;101882.3;;;26.38;48.03711
59987;BME280;46181;51.498;5.392;2023-07-09T23:04:48;101905.2;;;26.35;48.29004
59987;BME280;46181;51.498;5.392;2023-07-09T23:09:18;101912.1;;;26.39;48.13086